Pinson, Alabama
Current Conditions -  °F | °C
As of 1:53 PM on Friday 24 Oct 2014 (Local Time) from KBHM Reporting Station
Clear Clear  
Wind Chill: 73°   Ceiling: Unl
Heat Index: 73°   Visibility: 10mi
Dew Point: 41°   Wind: 9mph
Humidity: 31%   Direction: 330°NNW
Pressure: 30.07"   Gusts: NA
Location:  33.69°N, 86.68°W
Report Text: KBHM 241853Z 33008KT 10SM CLR 23/05 A3007 RMK AO2 SLP179 T02280050
Loading
Personal Weather Stations






























Interactive Weather Map
Tropical Storm Tracking
New forecast layout! Learn more

10-Day Weather Forecast

Advertisements
Track Severe Weather on mobile